createdAt,value
2023-02-26T00:01:01.851Z,85.51
2023-02-26T00:03:41.217Z,85.50
2023-02-26T00:06:13.135Z,85.61
2023-02-26T00:08:44.988Z,85.66
2023-02-26T00:11:17.158Z,85.80
2023-02-26T00:13:52.567Z,85.62
2023-02-26T00:16:30.345Z,85.57
2023-02-26T00:19:04.907Z,85.56
2023-02-26T00:21:39.363Z,85.70
2023-02-26T00:24:11.408Z,85.72
2023-02-26T00:26:44.559Z,85.80
2023-02-26T00:29:22.254Z,85.53
2023-02-26T00:31:55.095Z,85.30
2023-02-26T00:34:30.103Z,85.45
2023-02-26T00:37:13.666Z,85.61
2023-02-26T00:40:00.564Z,85.41
2023-02-26T00:42:34.669Z,85.45
2023-02-26T00:45:10.566Z,85.30
2023-02-26T00:47:50.046Z,85.37
2023-02-26T00:50:27.398Z,85.53
2023-02-26T00:53:12.105Z,85.41
2023-02-26T00:55:43.912Z,85.47
2023-02-26T00:58:15.719Z,85.03
2023-02-26T01:00:47.493Z,85.03
2023-02-26T01:03:20.490Z,85.11
2023-02-26T01:05:58.760Z,85.05
2023-02-26T01:08:38.688Z,84.88
2023-02-26T01:11:13.700Z,84.84
2023-02-26T01:13:46.235Z,84.66
2023-02-26T01:16:28.573Z,84.95
2023-02-26T01:19:04.476Z,85.16
2023-02-26T01:21:44.245Z,85.29
2023-02-26T01:24:20.894Z,85.28
2023-02-26T01:26:54.498Z,85.09
2023-02-26T01:29:28.797Z,85.17
2023-02-26T01:32:07.730Z,85.14
2023-02-26T01:34:47.770Z,85.13
2023-02-26T01:37:30.047Z,84.87
2023-02-26T01:40:30.964Z,84.74
2023-02-26T01:43:09.427Z,84.95
2023-02-26T01:45:56.196Z,84.64
2023-02-26T01:48:37.821Z,84.54
2023-02-26T01:51:24.147Z,84.51
2023-02-26T01:53:58.672Z,84.68
2023-02-26T01:56:34.199Z,84.61
2023-02-26T01:59:14.687Z,84.69
2023-02-26T02:01:53.549Z,84.69
2023-02-26T02:04:29.669Z,84.52
2023-02-26T02:07:06.701Z,84.47
2023-02-26T02:09:44.168Z,84.54
2023-02-26T02:12:28.693Z,84.41
2023-02-26T02:15:09.680Z,84.27
2023-02-26T02:17:50.634Z,84.18
2023-02-26T02:20:53.197Z,84.29
2023-02-26T02:23:33.371Z,83.79
2023-02-26T02:26:41.642Z,83.65
2023-02-26T02:29:48.316Z,83.51
2023-02-26T02:32:24.426Z,83.58
2023-02-26T02:35:05.740Z,83.35
2023-02-26T02:37:42.763Z,83.03
2023-02-26T02:40:19.962Z,83.08
2023-02-26T02:42:56.855Z,83.44
2023-02-26T02:45:33.242Z,82.78
2023-02-26T02:48:11.531Z,82.74
2023-02-26T02:50:48.404Z,82.55
2023-02-26T02:53:25.423Z,82.16
2023-02-26T02:56:00.953Z,82.13
2023-02-26T02:58:36.949Z,81.85
2023-02-26T03:01:12.378Z,81.41
2023-02-26T03:03:51.827Z,81.26
2023-02-26T03:06:24.474Z,81.06
2023-02-26T03:08:56.805Z,81.09
2023-02-26T03:11:28.917Z,80.53
2023-02-26T03:14:01.776Z,80.72
2023-02-26T03:17:03.773Z,80.74
2023-02-26T03:19:46.636Z,81.12
2023-02-26T03:22:25.132Z,81.20
2023-02-26T03:25:10.132Z,81.24
2023-02-26T03:27:47.374Z,81.38
2023-02-26T03:30:26.299Z,81.23
2023-02-26T03:33:04.141Z,81.32
2023-02-26T03:35:43.453Z,81.49
2023-02-26T03:38:19.444Z,81.42
2023-02-26T03:40:55.375Z,81.32
2023-02-26T03:43:32.447Z,81.38
2023-02-26T03:46:08.569Z,81.20
2023-02-26T03:48:40.400Z,81.42
2023-02-26T03:51:14.777Z,81.68
2023-02-26T03:53:54.831Z,81.42
2023-02-26T03:56:34.262Z,81.45
2023-02-26T03:59:25.610Z,81.52
2023-02-26T04:02:12.710Z,81.81
2023-02-26T04:04:51.147Z,81.27
2023-02-26T04:07:23.957Z,81.57
2023-02-26T04:09:56.013Z,81.69
2023-02-26T04:12:30.794Z,81.61
2023-02-26T04:15:05.205Z,81.36
2023-02-26T04:17:37.094Z,81.43
2023-02-26T04:20:11.724Z,81.62
2023-02-26T04:22:43.797Z,81.55
2023-02-26T04:25:16.498Z,81.51
2023-02-26T04:27:48.313Z,81.19
2023-02-26T04:30:21.176Z,81.28
2023-02-26T04:32:53.229Z,81.47
2023-02-26T04:35:25.324Z,81.39
2023-02-26T04:37:57.123Z,81.61
2023-02-26T04:40:28.935Z,81.71
2023-02-26T04:43:00.686Z,81.85
2023-02-26T04:45:34.875Z,81.42
2023-02-26T04:48:06.830Z,81.53
2023-02-26T04:50:38.784Z,81.71
2023-02-26T04:53:11.154Z,81.67
2023-02-26T04:55:43.316Z,81.88
2023-02-26T04:58:15.157Z,81.83
2023-02-26T05:00:50.987Z,81.87
2023-02-26T05:03:22.848Z,81.87
2023-02-26T05:05:54.709Z,81.60
2023-02-26T05:08:26.584Z,81.87
2023-02-26T05:10:59.569Z,81.79
2023-02-26T05:13:31.412Z,82.13
2023-02-26T05:16:03.262Z,81.98
2023-02-26T05:18:35.090Z,81.98
2023-02-26T05:21:07.463Z,81.93
2023-02-26T05:23:39.287Z,81.84
2023-02-26T05:26:09.489Z,81.91
2023-02-26T05:28:41.296Z,81.97
2023-02-26T05:31:13.758Z,82.01
2023-02-26T05:33:45.811Z,82.19
2023-02-26T05:36:17.643Z,82.29
2023-02-26T05:38:49.436Z,82.23
2023-02-26T05:41:21.243Z,82.26
2023-02-26T05:43:53.208Z,82.44
2023-02-26T05:46:25.270Z,82.34
2023-02-26T05:48:57.325Z,82.49
2023-02-26T05:51:29.591Z,82.37
2023-02-26T05:54:01.381Z,82.42
2023-02-26T05:56:33.226Z,82.07
2023-02-26T05:59:05.149Z,82.33
2023-02-26T06:01:38.207Z,82.45
2023-02-26T06:04:10.544Z,82.23
2023-02-26T06:06:42.337Z,82.39
2023-02-26T06:09:14.126Z,82.57
2023-02-26T06:11:45.908Z,82.51
2023-02-26T06:14:17.771Z,82.62
2023-02-26T06:16:49.564Z,82.74
2023-02-26T06:19:21.986Z,82.72
2023-02-26T06:21:53.761Z,82.55
2023-02-26T06:24:26.386Z,82.66
2023-02-26T06:26:58.241Z,82.62
2023-02-26T06:29:30.008Z,82.78
2023-02-26T06:32:02.042Z,82.77
2023-02-26T06:34:33.969Z,82.64
2023-02-26T06:37:05.960Z,82.85
2023-02-26T06:39:37.742Z,82.92
2023-02-26T06:42:09.589Z,82.73
2023-02-26T06:44:41.408Z,82.49
2023-02-26T06:47:13.289Z,82.44
2023-02-26T06:49:45.225Z,82.24
2023-02-26T06:52:17.087Z,82.17
2023-02-26T06:54:48.919Z,82.20
2023-02-26T06:57:20.791Z,82.25
2023-02-26T06:59:52.589Z,82.40
2023-02-26T07:02:25.249Z,82.36
2023-02-26T07:04:57.125Z,82.17
2023-02-26T07:07:29.160Z,82.13
2023-02-26T07:10:00.947Z,82.23
2023-02-26T07:12:32.760Z,82.26
2023-02-26T07:15:04.783Z,81.45
2023-02-26T07:17:36.810Z,81.65
2023-02-26T07:20:12.243Z,81.54
2023-02-26T07:22:44.050Z,81.11
2023-02-26T07:25:16.248Z,80.63
2023-02-26T07:27:48.370Z,79.46
2023-02-26T07:30:20.711Z,79.14
2023-02-26T07:32:52.530Z,79.09
2023-02-26T07:35:24.662Z,78.89
2023-02-26T07:37:56.457Z,78.45
2023-02-26T07:40:28.289Z,78.48
2023-02-26T07:43:00.107Z,78.56
2023-02-26T07:45:31.872Z,77.88
2023-02-26T07:48:04.325Z,77.69
2023-02-26T07:50:36.134Z,76.81
2023-02-26T07:53:07.955Z,76.52
2023-02-26T07:55:39.766Z,76.55
2023-02-26T07:58:11.566Z,75.85
2023-02-26T08:00:43.341Z,75.75
2023-02-26T08:03:15.439Z,75.92
2023-02-26T08:05:47.317Z,76.38
2023-02-26T08:08:19.126Z,76.40
2023-02-26T08:10:51.042Z,75.57
2023-02-26T08:13:23.127Z,75.75
2023-02-26T08:15:55.011Z,75.57
2023-02-26T08:18:26.927Z,76.55
2023-02-26T08:20:58.739Z,77.61
2023-02-26T08:23:30.583Z,78.75
2023-02-26T08:26:06.510Z,79.10
2023-02-26T08:28:38.833Z,79.14
2023-02-26T08:31:11.185Z,79.42
2023-02-26T08:33:43.396Z,79.43
2023-02-26T08:36:15.281Z,79.70
2023-02-26T08:38:47.123Z,79.23
2023-02-26T08:41:18.986Z,79.23
2023-02-26T08:43:51.393Z,79.07
2023-02-26T08:46:23.748Z,79.28
2023-02-26T08:48:55.860Z,79.67
2023-02-26T08:51:28.505Z,80.04
2023-02-26T08:54:00.491Z,80.04
2023-02-26T08:56:32.866Z,80.03
2023-02-26T08:59:04.909Z,80.36
2023-02-26T09:01:36.862Z,80.27
2023-02-26T09:04:08.709Z,80.12
2023-02-26T09:06:40.594Z,79.55
2023-02-26T09:09:12.670Z,79.12
2023-02-26T09:11:44.447Z,79.01
2023-02-26T09:14:16.355Z,78.94
2023-02-26T09:16:51.055Z,79.37
2023-02-26T09:19:23.169Z,79.33
2023-02-26T09:21:55.134Z,78.85
2023-02-26T09:24:27.003Z,79.20
2023-02-26T09:26:58.846Z,79.60
2023-02-26T09:29:30.631Z,79.55
2023-02-26T09:32:02.549Z,80.17
2023-02-26T09:34:34.518Z,80.60
2023-02-26T09:37:07.797Z,80.17
2023-02-26T09:39:39.739Z,80.47
2023-02-26T09:42:21.942Z,80.30
2023-02-26T09:44:59.928Z,80.41
2023-02-26T09:47:40.868Z,80.72
2023-02-26T09:50:20.189Z,80.61
2023-02-26T09:52:57.870Z,80.82
2023-02-26T09:55:34.202Z,80.95
2023-02-26T09:58:12.502Z,80.49
2023-02-26T10:00:54.621Z,80.26
2023-02-26T10:03:34.727Z,79.75
2023-02-26T10:06:26.420Z,79.59
2023-02-26T10:09:06.104Z,79.16
2023-02-26T10:11:47.545Z,78.56
2023-02-26T10:14:24.364Z,78.12
2023-02-26T10:17:01.044Z,78.55
2023-02-26T10:19:39.505Z,77.58
2023-02-26T10:22:21.662Z,77.10
2023-02-26T10:24:57.879Z,76.54
2023-02-26T10:27:44.069Z,76.68
2023-02-26T10:30:24.271Z,76.51
2023-02-26T10:33:05.461Z,76.17
2023-02-26T10:35:44.412Z,75.96
2023-02-26T10:38:20.908Z,76.37
2023-02-26T10:40:57.095Z,75.79
2023-02-26T10:43:33.328Z,76.37
2023-02-26T10:46:17.795Z,76.70
2023-02-26T10:49:21.236Z,76.10
2023-02-26T10:51:57.386Z,76.05
2023-02-26T10:54:32.500Z,76.01
2023-02-26T10:57:05.004Z,75.97
2023-02-26T10:59:36.853Z,76.39
2023-02-26T11:02:28.672Z,76.54
2023-02-26T11:05:07.466Z,76.50
2023-02-26T11:07:42.721Z,76.18
2023-02-26T11:10:20.104Z,76.20
2023-02-26T11:12:52.581Z,76.02
2023-02-26T11:15:27.235Z,76.70
2023-02-26T11:18:00.876Z,76.92
2023-02-26T11:20:39.689Z,76.18
2023-02-26T11:23:17.881Z,75.53
2023-02-26T11:25:53.519Z,75.21
2023-02-26T11:28:32.345Z,75.85
2023-02-26T11:31:09.007Z,76.07
2023-02-26T11:33:45.117Z,75.56
2023-02-26T11:36:19.997Z,74.96
2023-02-26T11:38:57.476Z,75.53
2023-02-26T11:41:30.953Z,75.23
2023-02-26T11:44:07.976Z,75.17
2023-02-26T11:46:52.602Z,75.37
2023-02-26T11:49:28.764Z,75.20
2023-02-26T11:52:21.481Z,75.06
2023-02-26T11:55:00.277Z,75.01
2023-02-26T11:57:34.029Z,75.17
2023-02-26T12:00:21.156Z,75.44
2023-02-26T12:02:57.555Z,75.22
2023-02-26T12:05:29.764Z,74.77
2023-02-26T12:08:14.757Z,74.97
2023-02-26T12:10:57.517Z,75.49
2023-02-26T12:13:38.100Z,75.69
2023-02-26T12:16:20.261Z,75.74
2023-02-26T12:19:02.684Z,76.07
2023-02-26T12:22:01.660Z,75.83
2023-02-26T12:25:03.135Z,76.05
2023-02-26T12:27:56.541Z,76.16
2023-02-26T12:30:45.389Z,76.29
2023-02-26T12:33:34.244Z,76.88
2023-02-26T12:36:21.728Z,76.77
2023-02-26T12:39:05.757Z,76.38
2023-02-26T12:41:47.826Z,76.50
2023-02-26T12:44:22.850Z,76.30
2023-02-26T12:47:20.446Z,76.18
2023-02-26T12:50:17.941Z,75.77
2023-02-26T12:53:23.813Z,75.78
2023-02-26T12:56:06.102Z,75.64
2023-02-26T12:59:03.058Z,75.27
2023-02-26T13:02:01.402Z,75.12
2023-02-26T13:04:51.037Z,75.10
2023-02-26T13:08:03.807Z,75.22
2023-02-26T13:10:49.285Z,74.78
2023-02-26T13:13:38.324Z,74.38
2023-02-26T13:16:22.406Z,74.45
2023-02-26T13:19:02.250Z,74.14
2023-02-26T13:21:38.176Z,74.42
2023-02-26T13:24:17.089Z,74.33
2023-02-26T13:26:49.744Z,73.89
2023-02-26T13:29:26.130Z,73.81
2023-02-26T13:32:03.834Z,74.09
2023-02-26T13:34:42.227Z,73.89
2023-02-26T13:37:27.189Z,73.96
2023-02-26T13:40:13.363Z,73.68
2023-02-26T13:42:53.109Z,73.59
2023-02-26T13:45:39.800Z,73.80
2023-02-26T13:48:22.786Z,74.21
2023-02-26T13:51:03.792Z,74.46
2023-02-26T13:53:53.375Z,74.24
2023-02-26T13:56:48.154Z,73.98
2023-02-26T13:59:38.329Z,73.47
2023-02-26T14:02:40.714Z,73.42
2023-02-26T14:05:33.598Z,73.07
2023-02-26T14:08:27.429Z,73.49
2023-02-26T14:11:03.662Z,73.34
2023-02-26T14:13:39.889Z,73.44
2023-02-26T14:16:22.052Z,73.30
2023-02-26T14:18:54.679Z,73.17
2023-02-26T14:21:52.852Z,73.60
2023-02-26T14:24:36.551Z,73.33
2023-02-26T14:27:25.899Z,73.57
2023-02-26T14:30:06.464Z,73.28
2023-02-26T14:32:49.454Z,73.27
2023-02-26T14:35:24.595Z,73.72
2023-02-26T14:38:03.108Z,73.74
2023-02-26T14:40:39.200Z,74.03
2023-02-26T14:43:24.070Z,74.47
2023-02-26T14:45:55.996Z,74.37
2023-02-26T14:48:30.215Z,74.40
2023-02-26T14:51:16.117Z,74.42
2023-02-26T14:54:18.802Z,74.71
2023-02-26T14:57:01.756Z,74.96
2023-02-26T14:59:58.439Z,75.11
2023-02-26T15:02:34.556Z,75.17
2023-02-26T15:05:21.996Z,75.22
2023-02-26T15:08:13.114Z,75.67
2023-02-26T15:11:00.797Z,76.10
2023-02-26T15:13:46.752Z,76.08
2023-02-26T15:16:29.068Z,76.20
2023-02-26T15:19:15.387Z,76.43
2023-02-26T15:22:01.891Z,76.75
2023-02-26T15:25:01.247Z,77.01
2023-02-26T15:27:36.625Z,77.34
2023-02-26T15:30:16.187Z,77.73
2023-02-26T15:32:49.058Z,78.11
2023-02-26T15:35:23.237Z,78.38
2023-02-26T15:37:57.863Z,78.32
2023-02-26T15:40:32.969Z,78.36
2023-02-26T15:43:06.440Z,78.40
2023-02-26T15:45:42.551Z,78.40
2023-02-26T15:48:17.388Z,78.69
2023-02-26T15:50:54.897Z,78.61
2023-02-26T15:53:32.015Z,78.71
2023-02-26T15:56:06.274Z,78.88
2023-02-26T15:58:43.087Z,78.88
2023-02-26T16:01:20.710Z,78.85
2023-02-26T16:03:57.692Z,78.72
2023-02-26T16:06:33.982Z,78.83
2023-02-26T16:09:08.072Z,79.03
2023-02-26T16:11:42.465Z,79.04
2023-02-26T16:14:23.767Z,78.85
2023-02-26T16:16:57.772Z,78.74
2023-02-26T16:19:39.450Z,78.66
2023-02-26T16:22:20.914Z,78.78
2023-02-26T16:24:59.044Z,78.49
2023-02-26T16:27:32.817Z,78.91
2023-02-26T16:30:07.127Z,78.83
2023-02-26T16:32:40.313Z,78.58
2023-02-26T16:35:17.599Z,78.62
2023-02-26T16:37:50.008Z,78.42
2023-02-26T16:40:27.600Z,78.55
2023-02-26T16:43:04.952Z,78.37
2023-02-26T16:45:50.925Z,78.37
2023-02-26T16:48:30.159Z,78.32
2023-02-26T16:51:06.443Z,78.30
2023-02-26T16:53:47.563Z,78.38
2023-02-26T16:56:23.431Z,78.29
2023-02-26T16:59:54.216Z,78.25
2023-02-26T17:02:33.737Z,78.17
2023-02-26T17:14:48.571Z,78.22
2023-02-26T17:17:31.700Z,78.02
2023-02-26T17:20:04.115Z,77.90
2023-02-26T17:22:36.652Z,78.15
2023-02-26T17:25:22.623Z,78.07
2023-02-26T17:27:55.586Z,77.97
2023-02-26T17:30:31.738Z,78.15
2023-02-26T17:33:04.998Z,78.18
2023-02-26T17:35:37.259Z,78.06
2023-02-26T17:38:13.458Z,78.18
2023-02-26T17:40:47.630Z,77.84
2023-02-26T17:43:19.699Z,77.90
2023-02-26T17:45:52.468Z,77.70
2023-02-26T17:48:30.980Z,77.53
2023-02-26T17:51:04.640Z,77.52
2023-02-26T17:53:42.713Z,77.57
2023-02-26T17:56:27.091Z,77.67
2023-02-26T17:59:01.928Z,77.72
2023-02-26T18:01:35.631Z,77.52
2023-02-26T18:04:09.401Z,77.65
2023-02-26T18:06:45.757Z,77.73
2023-02-26T18:09:22.406Z,77.94
2023-02-26T18:11:56.453Z,77.82
2023-02-26T18:14:28.874Z,77.86
2023-02-26T18:17:03.866Z,77.93
2023-02-26T18:19:35.991Z,78.09
2023-02-26T18:22:10.303Z,78.01
2023-02-26T18:24:42.561Z,78.01
2023-02-26T18:27:18.086Z,77.89
2023-02-26T18:29:50.644Z,78.06
2023-02-26T18:32:25.351Z,78.22
2023-02-26T18:34:58.142Z,78.15
2023-02-26T18:37:30.984Z,78.12
2023-02-26T18:40:03.327Z,78.27
2023-02-26T18:42:35.688Z,78.67
2023-02-26T18:45:09.648Z,78.66
2023-02-26T18:47:42.258Z,78.72
2023-02-26T18:50:17.506Z,78.86
2023-02-26T18:52:50.473Z,78.94
2023-02-26T18:55:22.858Z,79.15
2023-02-26T18:57:55.549Z,79.15
2023-02-26T19:00:29.585Z,79.32
2023-02-26T19:03:02.298Z,79.47
2023-02-26T19:05:37.279Z,79.52
2023-02-26T19:08:10.902Z,79.52
2023-02-26T19:10:46.114Z,79.59
2023-02-26T19:13:19.913Z,79.65
2023-02-26T19:15:55.074Z,79.62
2023-02-26T19:18:28.002Z,79.88
2023-02-26T19:21:08.609Z,79.81
2023-02-26T19:23:42.019Z,80.11
2023-02-26T19:26:17.826Z,80.01
2023-02-26T19:28:50.481Z,79.94
2023-02-26T19:31:23.213Z,79.72
2023-02-26T19:33:55.308Z,79.76
2023-02-26T19:36:27.904Z,79.84
2023-02-26T19:39:00.960Z,80.16
2023-02-26T19:41:34.882Z,80.27
2023-02-26T19:44:07.346Z,80.30
2023-02-26T19:46:41.747Z,80.35
2023-02-26T19:49:14.329Z,80.35
2023-02-26T19:51:46.585Z,80.53
2023-02-26T19:54:18.991Z,80.52
2023-02-26T19:56:51.318Z,80.41
2023-02-26T19:59:23.471Z,80.21
2023-02-26T20:01:56.275Z,80.10
2023-02-26T20:04:28.441Z,79.94
2023-02-26T20:07:00.525Z,79.82
2023-02-26T20:09:32.494Z,79.72
2023-02-26T20:12:07.628Z,79.76
2023-02-26T20:14:39.881Z,79.88
2023-02-26T20:17:12.246Z,79.74
2023-02-26T20:19:45.427Z,79.67
2023-02-26T20:22:17.622Z,79.46
2023-02-26T20:24:49.607Z,79.35
2023-02-26T20:27:21.938Z,79.36
2023-02-26T20:29:53.942Z,79.45
2023-02-26T20:32:26.173Z,79.42
2023-02-26T20:34:58.401Z,79.25
2023-02-26T20:37:30.376Z,79.17
2023-02-26T20:40:02.324Z,79.43
2023-02-26T20:42:34.629Z,79.30
2023-02-26T20:45:09.104Z,79.22
2023-02-26T20:47:42.623Z,79.28
2023-02-26T20:50:15.238Z,79.23
2023-02-26T20:52:47.159Z,79.24
2023-02-26T20:55:21.173Z,79.01
2023-02-26T20:57:55.110Z,79.37
2023-02-26T21:00:27.687Z,79.22
2023-02-26T21:02:59.519Z,79.30
2023-02-26T21:05:31.361Z,79.38
2023-02-26T21:08:04.134Z,79.40
2023-02-26T21:10:35.967Z,79.55
2023-02-26T21:13:07.960Z,79.72
2023-02-26T21:15:39.770Z,79.60
2023-02-26T21:18:11.719Z,79.56
2023-02-26T21:20:43.507Z,79.67
2023-02-26T21:23:15.301Z,79.53
2023-02-26T21:25:47.155Z,79.59
2023-02-26T21:28:19.033Z,79.50
2023-02-26T21:30:53.588Z,79.35
2023-02-26T21:33:25.393Z,79.41
2023-02-26T21:35:57.687Z,79.37
2023-02-26T21:38:29.482Z,79.24
2023-02-26T21:41:01.550Z,79.18
2023-02-26T21:43:33.378Z,79.40
2023-02-26T21:46:05.484Z,79.32
2023-02-26T21:48:37.342Z,79.35
2023-02-26T21:51:11.419Z,79.23
2023-02-26T21:53:43.261Z,79.16
2023-02-26T21:56:15.208Z,79.12
2023-02-26T21:58:47.067Z,78.87
2023-02-26T22:01:21.355Z,78.68
2023-02-26T22:03:53.308Z,78.96
2023-02-26T22:06:25.780Z,78.78
2023-02-26T22:08:59.563Z,78.72
2023-02-26T22:11:33.953Z,78.68
2023-02-26T22:14:05.883Z,78.64
2023-02-26T22:16:37.846Z,78.33
2023-02-26T22:19:09.659Z,78.36
2023-02-26T22:21:41.480Z,78.21
2023-02-26T22:24:13.297Z,78.02
2023-02-26T22:26:46.951Z,78.12
2023-02-26T22:29:19.446Z,77.84
2023-02-26T22:31:51.965Z,77.71
2023-02-26T22:34:23.920Z,77.67
2023-02-26T22:36:55.730Z,77.67
2023-02-26T22:39:27.616Z,77.75
2023-02-26T22:41:59.649Z,77.68
2023-02-26T22:44:31.620Z,77.53
2023-02-26T22:47:03.686Z,77.48
2023-02-26T22:49:35.546Z,77.44
2023-02-26T22:52:07.903Z,77.36
2023-02-26T22:54:39.871Z,77.34
2023-02-26T22:57:11.724Z,77.17
2023-02-26T22:59:43.805Z,77.17
2023-02-26T23:02:16.301Z,77.36
2023-02-26T23:04:48.450Z,77.01
2023-02-26T23:07:20.457Z,76.73
2023-02-26T23:09:52.263Z,76.75
2023-02-26T23:12:24.210Z,76.73
2023-02-26T23:14:56.169Z,76.85
2023-02-26T23:17:28.554Z,76.67
2023-02-26T23:20:00.797Z,76.56
2023-02-26T23:22:32.631Z,76.46
2023-02-26T23:25:04.720Z,76.30
2023-02-26T23:27:36.703Z,76.32
2023-02-26T23:30:10.719Z,76.34
2023-02-26T23:32:42.709Z,76.22
2023-02-26T23:35:14.806Z,76.05
2023-02-26T23:37:46.581Z,76.12
2023-02-26T23:40:18.876Z,75.83
2023-02-26T23:42:50.804Z,75.58
2023-02-26T23:45:22.790Z,75.70
2023-02-26T23:47:54.864Z,75.58
2023-02-26T23:50:26.700Z,75.42
2023-02-26T23:52:58.492Z,75.37
2023-02-26T23:55:30.259Z,75.14
2023-02-26T23:58:02.141Z,74.91
